Time;durP1;ratioP1;P1;durP2;ratioP2;P2;SDS_P1;SDS_P2;PMS_P1;PMS_P2;Temp;Humidity;BMP_temperature;BMP_pressure;BME280_temperature;BME280_humidity;BME280_pressure;Samples;Min_cycle;Max_cycle;Signal;HPM_P1;HPM_P2
2022/01/26 00:05:48;;;;;;;34.63;10.17;;;;;2.20;97527.00;;;;8267845;28;20282;-72
2022/01/26 00:10:04;;;;;;;33.53;9.90;;;;;2.10;97529.00;;;;8267618;28;20278;-72
2022/01/26 00:14:11;;;;;;;32.97;10.03;;;;;2.10;97521.00;;;;8267823;28;20278;-72
2022/01/26 00:18:21;;;;;;;29.53;10.03;;;;;2.20;97524.00;;;;8267047;28;20232;-72
2022/01/26 00:23:03;;;;;;;31.13;10.67;;;;;2.10;97527.00;;;;8267602;28;20304;-72
2022/01/26 00:27:24;;;;;;;36.50;9.83;;;;;2.10;97522.00;;;;8267369;28;20222;-72
2022/01/26 00:40:50;;;;;;;23.97;8.07;;;;;2.00;97513.00;;;;8299359;28;20554;-71
2022/01/26 00:44:53;;;;;;;42.67;11.07;;;;;1.90;97523.00;;;;8298838;28;20218;-72
2022/01/26 00:48:56;;;;;;;34.53;10.13;;;;;2.00;97509.00;;;;8299105;28;20220;-72
2022/01/26 00:53:00;;;;;;;29.50;9.73;;;;;2.00;97502.00;;;;8291339;28;20226;-72
2022/01/26 00:57:04;;;;;;;26.97;9.33;;;;;2.00;97498.00;;;;8298645;28;20220;-73
2022/01/26 01:01:38;;;;;;;34.70;11.03;;;;;2.00;97497.00;;;;8298808;28;20223;-74
2022/01/26 01:05:49;;;;;;;26.60;9.20;;;;;2.00;97496.00;;;;8297970;28;20219;-72
2022/01/26 01:10:21;;;;;;;38.17;9.70;;;;;1.90;97496.00;;;;8298073;28;20214;-74
2022/01/26 01:14:26;;;;;;;35.83;10.47;;;;;1.90;97489.00;;;;8297872;28;20238;-73
2022/01/26 01:18:37;;;;;;;39.07;10.17;;;;;1.90;97494.00;;;;8297890;28;20222;-73
2022/01/26 01:23:32;;;;;;;44.20;10.70;;;;;1.90;97496.00;;;;8297119;28;20266;-73
2022/01/26 01:32:15;;;;;;;46.63;11.70;;;;;2.00;97500.00;;;;8228402;28;20247;-73
2022/01/26 01:36:20;;;;;;;33.50;10.07;;;;;2.00;97496.00;;;;8260328;28;20221;-74
2022/01/26 01:40:23;;;;;;;42.03;10.67;;;;;2.10;97504.00;;;;8297546;28;20617;-72
2022/01/26 01:44:28;;;;;;;37.03;11.23;;;;;2.20;97502.00;;;;8296879;28;20225;-75
2022/01/26 01:48:33;;;;;;;33.07;10.10;;;;;2.10;97492.00;;;;8297199;28;20219;-75
2022/01/26 01:52:36;;;;;;;39.67;9.63;;;;;2.10;97482.00;;;;8296955;28;20220;-75
2022/01/26 01:57:12;;;;;;;39.00;10.83;;;;;2.10;97490.00;;;;8296865;28;20535;-74
2022/01/26 02:01:17;;;;;;;32.23;9.70;;;;;2.20;97487.00;;;;8296631;28;20597;-75
2022/01/26 02:05:50;;;;;;;34.00;10.53;;;;;2.20;97486.00;;;;8296305;28;20231;-74
2022/01/26 02:09:53;;;;;;;38.20;12.00;;;;;2.30;97487.00;;;;8295822;28;20223;-74
2022/01/26 02:14:33;;;;;;;42.90;12.67;;;;;2.30;97487.00;;;;8296196;28;20223;-75
2022/01/26 02:18:54;;;;;;;35.47;11.07;;;;;2.30;97477.00;;;;8296236;28;20224;-75
2022/01/26 02:58:24;;;;;;;49.63;13.10;;;;;2.20;97460.00;;;;8277692;28;20284;-75
2022/01/26 03:02:35;;;;;;;41.07;11.00;;;;;2.20;97471.00;;;;8345100;22;20257;-74
2022/01/26 03:06:45;;;;;;;39.80;11.50;;;;;2.20;97471.00;;;;8307885;28;20225;-74
2022/01/26 03:10:52;;;;;;;51.23;12.87;;;;;2.20;97475.00;;;;8309767;28;20238;-74
2022/01/26 03:15:00;;;;;;;49.03;12.30;;;;;2.10;97481.00;;;;8309260;28;20270;-73
2022/01/26 03:19:16;;;;;;;59.33;13.80;;;;;2.20;97466.00;;;;8308943;28;20744;-75
2022/01/26 03:36:25;;;;;;;53.03;13.40;;;;;2.30;97459.00;;;;8318272;28;20279;-74
2022/01/26 03:40:30;;;;;;;51.60;13.27;;;;;2.30;97454.00;;;;8321569;28;20247;-73
2022/01/26 03:44:33;;;;;;;58.90;14.93;;;;;2.30;97448.00;;;;8321048;28;20586;-75
2022/01/26 03:48:38;;;;;;;54.37;12.67;;;;;2.30;97447.00;;;;8318035;28;20234;-77
2022/01/26 03:52:41;;;;;;;62.23;13.87;;;;;2.40;97443.00;;;;8319590;28;20281;-74
2022/01/26 03:56:44;;;;;;;56.67;14.17;;;;;2.30;97445.00;;;;8316539;28;20281;-73
2022/01/26 04:00:47;;;;;;;63.37;14.00;;;;;2.40;97439.00;;;;8316835;28;20303;-75
2022/01/26 04:04:57;;;;;;;52.00;13.13;;;;;2.50;97445.00;;;;8337575;28;20246;-75
2022/01/26 04:09:00;;;;;;;57.67;14.50;;;;;2.50;97447.00;;;;8340625;28;20275;-76
2022/01/26 04:13:03;;;;;;;66.27;14.57;;;;;2.50;97436.00;;;;8344882;28;20283;-74
2022/01/26 04:17:08;;;;;;;66.10;14.37;;;;;2.50;97448.00;;;;8348111;28;20227;-73
2022/01/26 04:21:20;;;;;;;74.37;14.67;;;;;2.60;97455.00;;;;8348969;28;20982;-74
2022/01/26 04:25:25;;;;;;;66.83;15.20;;;;;2.60;97451.00;;;;8351458;28;20256;-74
2022/01/26 04:29:31;;;;;;;54.80;13.23;;;;;2.50;97439.00;;;;8345513;28;20298;-74
2022/01/26 04:33:34;;;;;;;61.83;12.13;;;;;2.40;97442.00;;;;8340849;28;20223;-73
2022/01/26 04:37:56;;;;;;;62.73;14.47;;;;;2.40;97432.00;;;;8347282;28;20283;-75
2022/01/26 04:42:00;;;;;;;54.70;13.87;;;;;2.40;97433.00;;;;8349497;28;20284;-73
2022/01/26 04:46:05;;;;;;;48.97;13.30;;;;;2.30;97441.00;;;;8349050;28;20287;-73
2022/01/26 04:50:10;;;;;;;50.67;13.40;;;;;2.30;97429.00;;;;8341818;28;20225;-74
2022/01/26 04:54:15;;;;;;;59.33;14.20;;;;;2.20;97424.00;;;;8349991;28;20232;-73
2022/01/26 04:58:18;;;;;;;60.13;14.27;;;;;2.30;97430.00;;;;8344854;28;20296;-74
2022/01/26 05:02:21;;;;;;;66.40;15.33;;;;;2.30;97432.00;;;;8351688;28;20302;-75
2022/01/26 05:06:25;;;;;;;63.03;15.33;;;;;2.30;97433.00;;;;8348311;28;20231;-73
2022/01/26 05:10:29;;;;;;;65.17;14.77;;;;;2.50;97430.00;;;;8349281;28;20234;-74
2022/01/26 05:14:33;;;;;;;64.33;14.97;;;;;2.50;97441.00;;;;8341485;28;20309;-73
2022/01/26 05:18:37;;;;;;;62.67;15.80;;;;;2.50;97444.00;;;;8346343;28;20758;-72
2022/01/26 05:22:41;;;;;;;60.07;14.57;;;;;2.50;97445.00;;;;8347022;28;20279;-74
2022/01/26 05:26:45;;;;;;;66.93;15.83;;;;;2.50;97448.00;;;;8347476;28;20255;-73
2022/01/26 05:30:48;;;;;;;60.77;15.80;;;;;2.50;97438.00;;;;8348246;28;20237;-73
2022/01/26 05:34:51;;;;;;;65.00;14.83;;;;;2.50;97428.00;;;;8347179;28;20229;-69
2022/01/26 05:38:54;;;;;;;58.97;13.83;;;;;2.50;97423.00;;;;8343203;28;20760;-68
2022/01/26 05:42:59;;;;;;;58.23;15.60;;;;;2.40;97433.00;;;;8343935;28;20274;-68
2022/01/26 05:47:04;;;;;;;65.27;16.57;;;;;2.40;97433.00;;;;8341849;28;20293;-68
2022/01/26 05:51:09;;;;;;;69.60;17.73;;;;;2.50;97429.00;;;;8340947;28;20246;-68
2022/01/26 05:55:12;;;;;;;80.10;16.07;;;;;2.50;97421.00;;;;8330704;28;20231;-68
2022/01/26 05:59:20;;;;;;;63.47;16.50;;;;;2.50;97431.00;;;;8344149;28;20214;-69
2022/01/26 06:03:23;;;;;;;64.97;15.53;;;;;2.50;97427.00;;;;8334410;28;20766;-68
2022/01/26 06:07:26;;;;;;;65.93;20.20;;;;;2.50;97418.00;;;;8340327;28;20226;-69
2022/01/26 06:11:29;;;;;;;59.30;14.03;;;;;2.50;97421.00;;;;8331636;28;20249;-68
2022/01/26 06:15:33;;;;;;;203.17;83.50;;;;;2.50;97420.00;;;;8336205;28;20254;-69
2022/01/26 06:19:36;;;;;;;38.87;12.87;;;;;2.50;97420.00;;;;8331920;28;20309;-68
2022/01/26 06:23:39;;;;;;;1076.83;519.27;;;;;2.50;97418.00;;;;8343341;28;20629;-68
2022/01/26 06:27:43;;;;;;;59.90;19.70;;;;;2.40;97421.00;;;;8338968;28;20220;-69
2022/01/26 06:31:48;;;;;;;55.63;19.87;;;;;2.40;97431.00;;;;8344534;28;20694;-68
2022/01/26 06:35:51;;;;;;;87.50;28.43;;;;;2.40;97433.00;;;;8344359;28;20230;-69
2022/01/26 06:39:54;;;;;;;45.27;13.00;;;;;2.40;97432.00;;;;8332234;28;20678;-68
2022/01/26 06:44:03;;;;;;;42.33;12.43;;;;;2.50;97423.00;;;;8331832;28;20684;-69
2022/01/26 06:48:38;;;;;;;50.37;13.47;;;;;2.50;97430.00;;;;8339644;28;20980;-69
2022/01/26 06:52:39;;;;;;;41.70;13.67;;;;;2.50;97430.00;;;;8342414;28;20226;-68
2022/01/26 06:56:42;;;;;;;48.17;13.37;;;;;2.50;97421.00;;;;8343168;28;20231;-68
2022/01/26 07:00:45;;;;;;;47.03;14.40;;;;;2.50;97414.00;;;;8338621;28;20235;-68
2022/01/26 07:04:49;;;;;;;39.47;12.03;;;;;2.50;97419.00;;;;8338244;28;20689;-69
2022/01/26 07:08:52;;;;;;;43.90;17.27;;;;;2.50;97422.00;;;;8342357;28;20769;-68
2022/01/26 07:12:56;;;;;;;37.10;11.07;;;;;2.60;97428.00;;;;8343972;28;20258;-68
2022/01/26 07:21:36;;;;;;;35.03;11.03;;;;;2.60;97438.00;;;;8275418;28;20295;-69
2022/01/26 07:25:39;;;;;;;36.93;11.30;;;;;2.60;97433.00;;;;8302773;28;20288;-70
2022/01/26 07:29:43;;;;;;;36.20;11.43;;;;;2.70;97434.00;;;;8343381;28;20279;-70
2022/01/26 07:33:46;;;;;;;32.80;11.17;;;;;2.70;97438.00;;;;8348103;28;20226;-70
2022/01/26 07:37:53;;;;;;;30.73;11.00;;;;;2.80;97447.00;;;;8350708;28;20628;-70
2022/01/26 07:41:56;;;;;;;39.40;11.67;;;;;2.80;97439.00;;;;8330671;28;20951;-70
2022/01/26 07:45:59;;;;;;;34.87;11.07;;;;;2.80;97426.00;;;;8340627;28;20276;-70
2022/01/26 07:50:05;;;;;;;37.60;12.80;;;;;2.80;97434.00;;;;8349075;28;20238;-70
2022/01/26 07:54:10;;;;;;;35.00;10.90;;;;;2.80;97427.00;;;;8350197;28;20235;-70
2022/01/26 07:58:13;;;;;;;27.77;9.30;;;;;2.90;97426.00;;;;8341685;28;20231;-70
2022/01/26 08:02:16;;;;;;;32.63;9.77;;;;;2.90;97429.00;;;;8340984;28;20238;-70
2022/01/26 08:06:19;;;;;;;34.73;9.80;;;;;2.90;97433.00;;;;8334964;28;20253;-70
2022/01/26 08:10:23;;;;;;;28.80;9.87;;;;;2.90;97426.00;;;;8342648;28;20230;-70
2022/01/26 08:14:26;;;;;;;27.20;9.00;;;;;2.90;97451.00;;;;8344234;28;20233;-70
2022/01/26 08:18:29;;;;;;;27.30;9.57;;;;;2.90;97455.00;;;;8346086;28;20695;-70
2022/01/26 08:22:33;;;;;;;31.17;8.83;;;;;2.90;97454.00;;;;8337270;28;20310;-70
2022/01/26 08:26:41;;;;;;;29.77;10.03;;;;;3.00;97456.00;;;;8347605;28;20289;-70
2022/01/26 08:30:44;;;;;;;34.57;10.67;;;;;3.00;97450.00;;;;8347296;28;20231;-70
2022/01/26 08:34:47;;;;;;;36.43;10.50;;;;;3.00;97447.00;;;;8344915;28;20227;-70
2022/01/26 08:38:50;;;;;;;35.30;11.07;;;;;3.00;97436.00;;;;8351762;28;20307;-70
2022/01/26 08:42:55;;;;;;;35.00;11.03;;;;;3.00;97437.00;;;;8363244;28;20222;-70
2022/01/26 08:46:58;;;;;;;40.20;11.20;;;;;3.00;97444.00;;;;8358319;28;20225;-70
2022/01/26 08:51:01;;;;;;;32.50;10.80;;;;;3.10;97446.00;;;;8349592;28;20243;-70
2022/01/26 08:55:05;;;;;;;41.53;17.87;;;;;3.00;97451.00;;;;8347629;28;20232;-70
2022/01/26 08:59:09;;;;;;;44.27;15.87;;;;;2.90;97450.00;;;;8340735;28;20301;-70
2022/01/26 09:03:12;;;;;;;47.33;16.43;;;;;3.00;97435.00;;;;8342769;28;20317;-70
2022/01/26 09:07:19;;;;;;;53.80;17.83;;;;;3.00;97452.00;;;;8333486;28;20498;-69
2022/01/26 09:11:22;;;;;;;45.93;14.23;;;;;3.00;97461.00;;;;8343706;28;20265;-69
2022/01/26 09:15:32;;;;;;;68.37;27.07;;;;;3.00;97470.00;;;;8342312;28;20220;-70
2022/01/26 09:19:36;;;;;;;51.50;14.90;;;;;3.00;97456.00;;;;8341476;28;20342;-69
2022/01/26 09:23:40;;;;;;;39.40;12.90;;;;;3.00;97445.00;;;;8339668;28;20217;-69
2022/01/26 09:27:43;;;;;;;52.30;14.50;;;;;3.10;97447.00;;;;8330347;28;20244;-68
2022/01/26 09:31:48;;;;;;;61.53;26.47;;;;;3.10;97466.00;;;;8345012;28;20227;-69
2022/01/26 09:35:51;;;;;;;55.10;18.40;;;;;3.00;97459.00;;;;8337887;28;20309;-69
2022/01/26 09:39:54;;;;;;;52.60;14.93;;;;;3.10;97450.00;;;;8349018;28;20230;-68
2022/01/26 09:43:58;;;;;;;56.73;17.33;;;;;3.10;97453.00;;;;8351517;28;20325;-68
2022/01/26 09:48:03;;;;;;;66.47;18.93;;;;;3.10;97451.00;;;;8341022;28;20223;-68
2022/01/26 09:52:21;;;;;;;62.10;18.87;;;;;3.10;97465.00;;;;8334883;28;20233;-68
2022/01/26 09:56:24;;;;;;;61.97;17.20;;;;;3.10;97459.00;;;;8335883;28;20230;-68
2022/01/26 10:00:27;;;;;;;116.83;42.00;;;;;3.10;97459.00;;;;8341393;28;20879;-68
2022/01/26 10:04:36;;;;;;;285.77;171.77;;;;;3.10;97455.00;;;;8336942;28;20234;-68
2022/01/26 10:17:34;;;;;;;40.20;12.77;;;;;3.00;97435.00;;;;8324649;28;20335;-67
2022/01/26 10:21:47;;;;;;;54.53;14.27;;;;;3.00;97445.00;;;;8336370;28;20275;-67
2022/01/26 10:26:02;;;;;;;47.83;12.80;;;;;3.00;97446.00;;;;8335405;28;20755;-68
2022/01/26 10:30:06;;;;;;;42.73;12.70;;;;;3.10;97443.00;;;;8335735;28;20232;-69
2022/01/26 10:34:12;;;;;;;49.13;12.53;;;;;3.10;97432.00;;;;8348259;28;20238;-68
2022/01/26 10:38:16;;;;;;;37.23;11.53;;;;;3.10;97437.00;;;;8344822;28;20277;-69
2022/01/26 10:42:21;;;;;;;50.13;13.13;;;;;3.00;97437.00;;;;8343374;28;20235;-68
2022/01/26 10:46:30;;;;;;;41.50;12.60;;;;;3.00;97435.00;;;;8350710;28;20974;-69
2022/01/26 10:50:46;;;;;;;35.83;11.07;;;;;3.00;97419.00;;;;8347817;28;20242;-69
2022/01/26 10:54:51;;;;;;;45.67;11.73;;;;;3.00;97434.00;;;;8335894;28;20585;-68
2022/01/26 10:58:54;;;;;;;40.90;10.90;;;;;3.00;97431.00;;;;8334920;28;20280;-71
2022/01/26 11:02:57;;;;;;;42.03;10.57;;;;;3.00;97432.00;;;;8344472;28;20240;-72
2022/01/26 11:07:03;;;;;;;33.23;10.13;;;;;3.10;97435.00;;;;8332865;28;20331;-72
2022/01/26 11:11:18;;;;;;;36.57;10.57;;;;;3.00;97435.00;;;;8340577;28;20228;-72
2022/01/26 11:15:24;;;;;;;43.03;11.67;;;;;2.90;97433.00;;;;8337324;28;20254;-73
2022/01/26 11:19:27;;;;;;;37.90;10.20;;;;;2.90;97438.00;;;;8329908;28;20229;-72
2022/01/26 11:23:35;;;;;;;39.47;10.30;;;;;3.00;97435.00;;;;8343284;28;20230;-73
2022/01/26 11:27:42;;;;;;;28.90;9.67;;;;;3.00;97439.00;;;;8331858;28;20291;-73
2022/01/26 11:31:46;;;;;;;35.07;8.80;;;;;3.00;97440.00;;;;8337505;28;20285;-73
2022/01/26 11:35:52;;;;;;;36.93;11.07;;;;;3.00;97446.00;;;;8332024;28;20244;-73
2022/01/26 11:49:05;;;;;;;40.33;11.30;;;;;3.10;97429.00;;;;8338839;28;20204;-74
2022/01/26 11:53:10;;;;;;;37.17;11.47;;;;;3.10;97425.00;;;;8336719;28;20240;-73
2022/01/26 11:57:16;;;;;;;33.67;10.63;;;;;3.10;97417.00;;;;8334424;28;20329;-73
2022/01/26 12:01:23;;;;;;;37.07;11.27;;;;;3.10;97414.00;;;;8334062;28;20236;-73
2022/01/26 12:05:27;;;;;;;40.60;11.70;;;;;3.10;97402.00;;;;8341083;28;20255;-72
2022/01/26 12:09:30;;;;;;;34.33;11.60;;;;;3.00;97397.00;;;;8349591;28;20224;-72
2022/01/26 12:13:36;;;;;;;77.47;33.60;;;;;2.90;97382.00;;;;8344879;28;20590;-73
2022/01/26 12:17:57;;;;;;;46.67;17.00;;;;;2.90;97383.00;;;;8349818;28;20249;-72
2022/01/26 12:35:47;;;;;;;49.97;13.67;;;;;2.80;97391.00;;;;8314358;28;20229;-73
2022/01/26 12:44:16;;;;;;;52.83;15.90;;;;;2.70;97396.00;;;;8355950;28;20226;-73
2022/01/26 12:48:19;;;;;;;42.23;13.27;;;;;2.70;97396.00;;;;8333141;28;20401;-72
2022/01/26 12:52:24;;;;;;;44.80;13.77;;;;;2.80;97400.00;;;;8330796;28;20266;-73
2022/01/26 12:56:28;;;;;;;43.17;12.70;;;;;2.80;97413.00;;;;8324377;28;20233;-73
2022/01/26 13:00:40;;;;;;;40.27;11.57;;;;;2.80;97402.00;;;;8345219;28;20593;-73
2022/01/26 13:04:45;;;;;;;51.67;19.00;;;;;2.70;97410.00;;;;8334987;28;20255;-74
2022/01/26 13:08:52;;;;;;;49.93;17.10;;;;;2.80;97400.00;;;;8349821;28;20280;-74
2022/01/26 13:12:55;;;;;;;41.27;11.97;;;;;2.70;97404.00;;;;8346157;28;20227;-75
2022/01/26 13:17:13;;;;;;;37.00;11.90;;;;;2.70;97409.00;;;;8323402;28;20307;-74
2022/01/26 13:21:43;;;;;;;40.13;14.53;;;;;2.70;97408.00;;;;8320847;28;20599;-74
2022/01/26 13:25:59;;;;;;;74.97;27.90;;;;;2.70;97407.00;;;;8348490;28;20228;-74
2022/01/26 13:30:28;;;;;;;34.83;11.23;;;;;2.60;97397.00;;;;8348523;28;20630;-74
2022/01/26 13:34:50;;;;;;;41.13;14.27;;;;;2.60;97402.00;;;;8347540;28;20977;-75
2022/01/26 13:39:06;;;;;;;40.83;13.50;;;;;2.60;97417.00;;;;8343880;28;20690;-74
2022/01/26 13:48:05;;;;;;;39.30;11.50;;;;;2.50;97420.00;;;;8315615;28;20261;-73
2022/01/26 13:52:31;;;;;;;31.10;10.33;;;;;2.50;97415.00;;;;8333460;28;20295;-73
2022/01/26 13:56:41;;;;;;;33.97;11.07;;;;;2.50;97410.00;;;;8338857;28;20217;-73
2022/01/26 14:00:54;;;;;;;34.63;11.43;;;;;2.40;97400.00;;;;8342008;28;20687;-73
2022/01/26 14:04:57;;;;;;;27.73;10.47;;;;;2.40;97398.00;;;;8338099;28;20251;-73
2022/01/26 14:09:00;;;;;;;33.93;12.03;;;;;2.40;97391.00;;;;8340484;28;20237;-73
2022/01/26 14:13:03;;;;;;;41.63;12.40;;;;;2.40;97391.00;;;;8345904;28;20374;-73
2022/01/26 14:17:14;;;;;;;34.27;11.47;;;;;2.40;97394.00;;;;8345423;28;20234;-80
2022/01/26 14:21:31;;;;;;;25.33;10.17;;;;;2.40;97402.00;;;;8339640;28;20728;-77
2022/01/26 14:25:35;;;;;;;32.73;9.57;;;;;2.30;97391.00;;;;8337405;28;20267;-72
2022/01/26 14:29:54;;;;;;;35.03;10.83;;;;;2.30;97400.00;;;;8334042;28;20815;-73
2022/01/26 15:09:06;;;;;;;24.73;11.97;;;;;1.60;97461.00;;;;8338830;28;20273;-73
2022/01/26 15:30:53;;;;;;;21.60;7.60;;;;;1.40;97422.00;;;;8341814;28;20228;-73
2022/01/26 15:35:06;;;;;;;18.73;9.17;;;;;1.50;97414.00;;;;8332898;28;20228;-72
2022/01/26 15:43:44;;;;;;;22.77;7.97;;;;;1.50;97400.00;;;;8335093;28;20594;-73
2022/01/26 15:52:32;;;;;;;22.50;8.17;;;;;1.60;97400.00;;;;8337210;28;20270;-73
2022/01/26 16:05:38;;;;;;;21.40;7.40;;;;;1.70;97374.00;;;;8344877;28;20252;-72
2022/01/26 16:36:33;;;;;;;27.47;11.13;;;;;1.70;97410.00;;;;8333478;28;20225;-73
2022/01/26 17:03:06;;;;;;;25.53;8.87;;;;;1.50;97469.00;;;;8341001;28;20288;-79
2022/01/26 17:11:53;;;;;;;15.50;7.13;;;;;1.60;97473.00;;;;8337682;28;20275;-81
2022/01/26 17:46:44;;;;;;;17.40;6.90;;;;;1.30;97436.00;;;;8334850;28;20251;-77
2022/01/26 18:17:01;;;;;;;15.20;7.87;;;;;1.30;97425.00;;;;8334403;28;20232;-78
2022/01/26 18:39:00;;;;;;;17.80;8.23;;;;;1.20;97421.00;;;;8341897;28;20216;-74
2022/01/26 18:51:56;;;;;;;14.43;7.50;;;;;1.10;97422.00;;;;8346347;28;20286;-74
2022/01/26 18:56:01;;;;;;;19.10;9.50;;;;;1.10;97420.00;;;;8337602;28;20302;-75
2022/01/26 19:00:09;;;;;;;16.27;8.23;;;;;1.20;97412.00;;;;8341078;28;20228;-77
2022/01/26 19:04:12;;;;;;;16.20;8.30;;;;;1.20;97400.00;;;;8337276;28;20237;-76
2022/01/26 19:08:15;;;;;;;14.77;7.20;;;;;1.20;97406.00;;;;8347092;28;20233;-76
2022/01/26 19:12:22;;;;;;;14.53;7.03;;;;;1.20;97407.00;;;;8338475;28;21920;-76
2022/01/26 19:16:33;;;;;;;16.50;8.13;;;;;1.10;97405.00;;;;8343490;28;20941;-74
2022/01/26 19:20:50;;;;;;;19.97;8.60;;;;;1.20;97422.00;;;;8340247;28;20235;-74
2022/01/26 19:24:58;;;;;;;19.63;8.73;;;;;1.20;97411.00;;;;8335859;28;20282;-79
2022/01/26 19:29:12;;;;;;;13.67;6.90;;;;;1.20;97444.00;;;;8344158;28;20270;-77
2022/01/26 19:40:00;;;;;;;20.00;9.67;;;;;1.10;97466.00;;;;8338391;28;20242;-78
2022/01/26 19:51:08;;;;;;;22.07;8.93;;;;;1.20;97429.00;;;;8326662;28;20837;-77
2022/01/26 19:55:12;;;;;;;17.00;7.90;;;;;1.20;97436.00;;;;8341748;28;20220;-78
2022/01/26 19:59:15;;;;;;;21.23;10.37;;;;;1.20;97441.00;;;;8345837;28;20259;-77
2022/01/26 20:03:21;;;;;;;30.43;11.70;;;;;1.20;97429.00;;;;8343127;28;20255;-76
2022/01/26 20:07:29;;;;;;;27.53;10.90;;;;;1.20;97423.00;;;;8347112;28;20218;-78
2022/01/26 20:11:39;;;;;;;25.97;11.17;;;;;1.30;97420.00;;;;8347444;28;20239;-81
2022/01/26 20:15:42;;;;;;;25.50;11.83;;;;;1.30;97415.00;;;;8346300;28;20290;-81
2022/01/26 20:19:47;;;;;;;27.43;11.70;;;;;1.40;97431.00;;;;8340615;28;20706;-79
2022/01/26 20:23:50;;;;;;;21.73;10.43;;;;;1.30;97430.00;;;;8348494;28;20239;-78
2022/01/26 20:27:53;;;;;;;23.23;11.57;;;;;1.30;97425.00;;;;8346831;28;20267;-76
2022/01/26 20:31:56;;;;;;;26.77;11.87;;;;;1.30;97417.00;;;;8346238;28;20303;-76
2022/01/26 20:36:01;;;;;;;23.53;10.10;;;;;1.20;97408.00;;;;8329728;28;20328;-77
2022/01/26 20:40:06;;;;;;;20.20;9.80;;;;;1.20;97404.00;;;;8335877;28;20232;-76
2022/01/26 20:44:09;;;;;;;20.07;9.77;;;;;1.30;97390.00;;;;8337630;28;20235;-77
2022/01/26 20:48:12;;;;;;;24.13;10.83;;;;;1.20;97404.00;;;;8336256;28;20846;-77
2022/01/26 20:52:19;;;;;;;19.67;9.97;;;;;1.20;97419.00;;;;8340648;28;20662;-76
2022/01/26 20:56:23;;;;;;;22.97;9.93;;;;;1.30;97413.00;;;;8331956;28;20263;-76
2022/01/26 21:00:25;;;;;;;32.37;12.67;;;;;1.20;97408.00;;;;8334334;28;20245;-76
2022/01/26 21:04:29;;;;;;;28.83;11.47;;;;;1.20;97398.00;;;;8339766;28;20232;-75
2022/01/26 21:08:34;;;;;;;28.60;12.23;;;;;1.30;97388.00;;;;8334437;28;20234;-77
2022/01/26 21:12:37;;;;;;;22.43;10.30;;;;;1.30;97379.00;;;;8337089;28;20221;-76
2022/01/26 21:16:41;;;;;;;23.60;11.17;;;;;1.30;97371.00;;;;8335295;28;20687;-76
2022/01/26 21:20:45;;;;;;;22.40;9.27;;;;;1.30;97378.00;;;;8336026;28;20765;-77
2022/01/26 21:24:49;;;;;;;25.67;12.27;;;;;1.20;97388.00;;;;8328916;28;20227;-76
2022/01/26 21:28:52;;;;;;;28.03;10.93;;;;;1.30;97397.00;;;;8338356;28;20220;-77
2022/01/26 21:32:56;;;;;;;23.60;10.43;;;;;1.30;97383.00;;;;8344606;28;20261;-76
2022/01/26 21:36:59;;;;;;;24.40;10.50;;;;;1.20;97385.00;;;;8338559;28;20234;-75
2022/01/26 21:41:06;;;;;;;25.90;10.80;;;;;1.30;97380.00;;;;8341988;28;20228;-73
2022/01/26 21:45:10;;;;;;;32.73;12.07;;;;;1.30;97377.00;;;;8328058;28;20301;-77
2022/01/26 21:49:13;;;;;;;32.30;11.73;;;;;1.20;97389.00;;;;8338155;28;20263;-76
2022/01/26 21:53:17;;;;;;;32.87;12.10;;;;;1.30;97382.00;;;;8342336;28;20224;-77
2022/01/26 21:57:21;;;;;;;29.33;10.93;;;;;1.30;97379.00;;;;8340348;28;20722;-75
2022/01/26 22:01:24;;;;;;;27.83;12.33;;;;;1.20;97369.00;;;;8333976;28;20654;-81
2022/01/26 22:05:27;;;;;;;30.87;11.80;;;;;1.20;97375.00;;;;8339467;28;20234;-76
2022/01/26 22:09:30;;;;;;;20.97;9.67;;;;;1.20;97372.00;;;;8338965;28;20983;-74
2022/01/26 22:13:35;;;;;;;24.60;10.63;;;;;1.20;97354.00;;;;8345279;28;20233;-76
2022/01/26 22:17:38;;;;;;;19.47;9.33;;;;;1.10;97365.00;;;;8339228;28;20227;-78
2022/01/26 22:21:41;;;;;;;13.83;6.87;;;;;1.10;97362.00;;;;8333241;28;20233;-77
2022/01/26 22:25:44;;;;;;;11.30;6.27;;;;;1.10;97351.00;;;;8330146;28;20225;-76
2022/01/26 22:29:48;;;;;;;13.00;6.33;;;;;1.10;97341.00;;;;8329045;28;20274;-75
2022/01/26 22:33:52;;;;;;;10.07;5.53;;;;;1.10;97336.00;;;;8342637;28;20228;-75
2022/01/26 22:37:58;;;;;;;12.27;6.17;;;;;1.10;97341.00;;;;8333189;28;20555;-75
2022/01/26 22:42:01;;;;;;;13.47;6.77;;;;;1.10;97341.00;;;;8352198;28;20287;-75
2022/01/26 22:46:06;;;;;;;13.53;6.57;;;;;1.00;97330.00;;;;8336678;28;20305;-73
2022/01/26 22:50:09;;;;;;;14.80;7.33;;;;;1.00;97322.00;;;;8330208;28;20237;-73
2022/01/26 22:54:12;;;;;;;14.23;6.43;;;;;1.00;97334.00;;;;8329898;28;21615;-73
2022/01/26 22:58:17;;;;;;;9.97;6.40;;;;;1.00;97335.00;;;;8327569;28;20233;-72
2022/01/26 23:02:46;;;;;;;12.47;6.93;;;;;0.90;97335.00;;;;8337610;28;20225;-73
2022/01/26 23:07:09;;;;;;;13.57;6.80;;;;;0.90;97332.00;;;;8321837;28;20227;-74
2022/01/26 23:11:15;;;;;;;13.90;7.53;;;;;0.90;97337.00;;;;8333974;28;20247;-73
2022/01/26 23:15:18;;;;;;;12.97;7.00;;;;;0.90;97320.00;;;;8337479;28;20262;-73
2022/01/26 23:19:22;;;;;;;14.43;6.40;;;;;0.80;97331.00;;;;8326848;28;20720;-74
2022/01/26 23:23:27;;;;;;;11.87;6.17;;;;;0.80;97340.00;;;;8335484;28;20563;-73
2022/01/26 23:28:03;;;;;;;16.10;7.73;;;;;0.80;97337.00;;;;8341997;28;20237;-73
2022/01/26 23:32:24;;;;;;;15.63;7.47;;;;;0.80;97334.00;;;;8330418;28;20309;-73
2022/01/26 23:37:06;;;;;;;12.87;6.37;;;;;0.80;97328.00;;;;8330437;28;20234;-73
